Time;durP1;ratioP1;P1;durP2;ratioP2;P2;SDS_P1;SDS_P2;PMS_P1;PMS_P2;Temp;Humidity;BMP_temperature;BMP_pressure;BME280_temperature;BME280_humidity;BME280_pressure;Samples;Min_cycle;Max_cycle;Signal;HPM_P1;HPM_P2
2023/03/08 00:01:21;;;;;;;46.67;31.80;;;6.40;99.90;;;;;;4960997;28;20022;-70
2023/03/08 00:03:50;;;;;;;41.72;29.70;;;6.40;99.90;;;;;;4978016;28;20026;-70
2023/03/08 00:06:15;;;;;;;37.83;27.85;;;6.50;99.90;;;;;;4977955;28;20054;-70
2023/03/08 00:08:42;;;;;;;40.28;28.75;;;6.50;99.90;;;;;;4977919;28;20061;-70
2023/03/08 00:11:09;;;;;;;37.30;28.63;;;6.40;99.90;;;;;;4960664;28;20062;-70
2023/03/08 00:13:36;;;;;;;41.28;27.85;;;6.50;99.90;;;;;;4977295;28;20487;-70
2023/03/08 00:16:07;;;;;;;41.13;27.67;;;6.40;99.90;;;;;;4977392;28;20073;-70
2023/03/08 00:18:36;;;;;;;39.55;28.33;;;6.50;99.90;;;;;;4977550;28;20037;-71
2023/03/08 00:21:05;;;;;;;40.22;28.90;;;6.50;99.90;;;;;;4977666;28;20578;-70
2023/03/08 00:23:31;;;;;;;38.63;27.73;;;6.50;99.90;;;;;;4960855;28;20054;-70
2023/03/08 00:25:57;;;;;;;41.33;28.90;;;6.50;99.90;;;;;;4960657;28;20503;-70
2023/03/08 00:28:23;;;;;;;40.55;29.52;;;6.40;99.90;;;;;;4978031;28;20421;-70
2023/03/08 00:31:04;;;;;;;47.88;31.20;;;6.50;99.90;;;;;;4977960;28;20035;-70
2023/03/08 00:33:31;;;;;;;47.65;31.23;;;6.40;99.90;;;;;;4978096;28;20027;-70
2023/03/08 00:36:06;;;;;;;44.67;31.50;;;6.50;99.90;;;;;;4977624;28;20022;-70
2023/03/08 00:38:33;;;;;;;44.35;29.70;;;6.40;99.90;;;;;;4960384;28;20407;-70
2023/03/08 00:40:59;;;;;;;48.10;31.75;;;6.40;99.90;;;;;;4977890;28;20023;-70
2023/03/08 00:43:26;;;;;;;38.72;28.58;;;6.40;99.90;;;;;;4977965;28;20510;-70
2023/03/08 00:45:51;;;;;;;42.97;29.08;;;6.40;99.90;;;;;;4960579;28;20029;-70
2023/03/08 00:48:17;;;;;;;39.75;26.52;;;6.40;99.90;;;;;;4977755;28;20023;-70
2023/03/08 00:50:43;;;;;;;34.83;24.83;;;6.40;99.90;;;;;;4977176;28;20047;-70
2023/03/08 00:53:10;;;;;;;35.88;25.45;;;6.30;99.90;;;;;;4963350;28;20078;-70
2023/03/08 00:55:35;;;;;;;35.70;26.35;;;6.40;99.90;;;;;;4963977;28;20380;-70
2023/03/08 00:58:01;;;;;;;35.25;24.20;;;6.40;99.90;;;;;;4981632;28;20049;-70
2023/03/08 01:00:27;;;;;;;30.13;22.52;;;6.30;99.90;;;;;;4963950;28;20398;-70
2023/03/08 01:02:53;;;;;;;28.95;21.23;;;6.20;99.90;;;;;;4981434;28;20461;-70
2023/03/08 01:05:19;;;;;;;30.20;20.67;;;6.10;99.90;;;;;;4981154;28;20027;-70
2023/03/08 01:07:44;;;;;;;32.53;21.92;;;6.00;99.90;;;;;;4981282;28;20039;-71
2023/03/08 01:10:11;;;;;;;30.73;21.48;;;6.00;99.90;;;;;;4963768;28;20035;-70
2023/03/08 01:12:37;;;;;;;33.38;23.95;;;6.00;99.90;;;;;;4981213;28;20105;-70
2023/03/08 01:15:04;;;;;;;28.98;21.38;;;6.00;99.90;;;;;;4980909;28;20026;-70
2023/03/08 01:17:30;;;;;;;31.80;21.20;;;6.00;99.90;;;;;;4963895;28;21174;-70
2023/03/08 01:19:56;;;;;;;31.63;21.60;;;6.00;99.90;;;;;;4963256;28;20026;-70
2023/03/08 01:22:22;;;;;;;31.20;21.65;;;6.10;99.90;;;;;;4981160;28;20027;-70
2023/03/08 01:24:48;;;;;;;35.72;22.42;;;6.10;99.90;;;;;;4963529;28;20022;-70
2023/03/08 01:27:15;;;;;;;32.08;22.27;;;6.10;99.90;;;;;;4981063;28;20387;-70
2023/03/08 01:29:42;;;;;;;30.75;22.02;;;6.00;99.90;;;;;;4963371;28;20105;-70
2023/03/08 01:32:08;;;;;;;37.13;23.52;;;6.00;99.90;;;;;;4981138;28;20019;-70
2023/03/08 01:34:38;;;;;;;32.60;21.95;;;6.00;99.90;;;;;;4980505;28;20027;-70
2023/03/08 01:37:04;;;;;;;30.50;20.63;;;6.00;99.90;;;;;;4980645;28;20114;-70
2023/03/08 01:39:30;;;;;;;33.67;22.38;;;6.00;99.90;;;;;;4980605;28;20031;-70
2023/03/08 01:41:56;;;;;;;32.42;22.83;;;6.10;99.90;;;;;;4980835;28;20098;-70
2023/03/08 01:44:22;;;;;;;32.38;22.42;;;6.10;99.90;;;;;;4963152;28;20521;-70
2023/03/08 01:46:48;;;;;;;32.85;22.75;;;6.10;99.90;;;;;;4980556;28;20062;-70
2023/03/08 01:49:27;;;;;;;31.88;22.67;;;6.10;99.90;;;;;;4980344;28;20030;-70
2023/03/08 01:52:01;;;;;;;35.78;23.67;;;6.20;99.90;;;;;;4980256;28;20062;-70
2023/03/08 01:54:52;;;;;;;35.88;23.92;;;6.20;99.90;;;;;;4980827;28;20023;-70
2023/03/08 01:57:40;;;;;;;34.10;23.42;;;6.10;99.90;;;;;;4961750;28;20450;-70
2023/03/08 02:00:07;;;;;;;32.28;23.17;;;6.10;99.90;;;;;;4980288;28;20027;-70
2023/03/08 02:02:40;;;;;;;31.70;22.58;;;6.10;99.90;;;;;;4980616;28;20034;-70
2023/03/08 02:05:07;;;;;;;34.08;23.02;;;6.00;99.90;;;;;;4979466;28;20026;-70
2023/03/08 02:07:32;;;;;;;37.13;24.45;;;6.00;99.90;;;;;;4980210;28;20019;-70
2023/03/08 02:09:58;;;;;;;34.55;23.33;;;6.00;99.90;;;;;;4980143;28;20031;-70
2023/03/08 02:12:25;;;;;;;33.97;23.48;;;6.00;99.90;;;;;;4980212;28;20093;-70
2023/03/08 02:14:50;;;;;;;39.10;25.33;;;6.00;99.90;;;;;;4979981;28;20498;-70
2023/03/08 02:17:16;;;;;;;36.38;23.58;;;6.10;99.90;;;;;;4961963;28;20023;-70
2023/03/08 02:20:00;;;;;;;32.35;23.85;;;6.00;99.90;;;;;;4962681;28;20054;-70
2023/03/08 02:22:26;;;;;;;33.22;23.98;;;6.10;99.90;;;;;;4963636;28;20502;-70
2023/03/08 02:24:52;;;;;;;34.83;23.15;;;6.10;99.90;;;;;;4979680;28;20057;-70
2023/03/08 02:27:23;;;;;;;34.38;22.73;;;6.10;99.90;;;;;;4979580;28;20030;-70
2023/03/08 02:29:49;;;;;;;33.75;24.15;;;6.10;99.90;;;;;;4979821;28;20102;-70
2023/03/08 02:32:15;;;;;;;34.65;24.15;;;6.10;99.90;;;;;;4979520;28;20058;-70
2023/03/08 02:34:41;;;;;;;32.17;22.38;;;6.20;99.90;;;;;;4962046;28;20034;-71
2023/03/08 02:37:07;;;;;;;30.77;21.85;;;6.10;99.90;;;;;;4979333;28;20522;-70
2023/03/08 02:39:32;;;;;;;33.95;22.75;;;6.20;99.90;;;;;;4979644;28;20465;-70
2023/03/08 02:41:58;;;;;;;31.75;21.73;;;6.20;99.90;;;;;;4979401;28;20031;-70
2023/03/08 02:44:23;;;;;;;33.03;22.88;;;6.20;99.90;;;;;;4962239;28;20023;-70
2023/03/08 02:46:50;;;;;;;28.58;20.40;;;6.20;99.90;;;;;;4979419;28;20119;-70
2023/03/08 02:49:16;;;;;;;31.90;22.52;;;6.20;99.90;;;;;;4979339;28;20040;-71
2023/03/08 02:51:41;;;;;;;28.85;21.45;;;6.20;99.90;;;;;;4979257;28;20034;-70
2023/03/08 02:54:07;;;;;;;27.73;20.83;;;6.20;99.90;;;;;;4961893;28;20031;-70
2023/03/08 02:56:33;;;;;;;33.72;22.45;;;6.20;99.90;;;;;;4979451;28;20065;-70
2023/03/08 02:58:58;;;;;;;29.17;20.98;;;6.20;99.90;;;;;;4979040;28;20019;-70
2023/03/08 03:01:24;;;;;;;32.53;22.50;;;6.20;99.90;;;;;;4979205;28;20026;-70
2023/03/08 03:03:53;;;;;;;29.80;21.30;;;6.20;99.90;;;;;;4978918;28;20031;-70
2023/03/08 03:06:20;;;;;;;32.05;21.17;;;6.20;99.90;;;;;;4979074;28;20070;-70
2023/03/08 03:08:45;;;;;;;31.60;22.70;;;6.20;99.90;;;;;;4979075;28;20102;-70
2023/03/08 03:11:17;;;;;;;29.23;21.90;;;6.30;99.90;;;;;;4961803;28;20179;-70
2023/03/08 03:13:43;;;;;;;31.45;22.42;;;6.30;99.90;;;;;;4978797;28;20118;-70
2023/03/08 03:16:12;;;;;;;32.75;21.33;;;6.30;99.90;;;;;;4961639;28;20023;-70
2023/03/08 03:18:39;;;;;;;38.67;23.88;;;6.40;99.90;;;;;;4961484;28;20023;-70
2023/03/08 03:21:07;;;;;;;31.25;23.17;;;6.40;99.90;;;;;;4978710;28;20054;-70
2023/03/08 03:23:33;;;;;;;36.35;23.35;;;6.50;99.90;;;;;;4978786;28;20019;-70
2023/03/08 03:26:28;;;;;;;37.10;23.73;;;6.50;99.90;;;;;;4961443;28;20022;-70
2023/03/08 03:28:58;;;;;;;35.22;23.73;;;6.60;99.90;;;;;;4964891;28;20462;-70
2023/03/08 03:31:25;;;;;;;37.20;24.05;;;6.60;99.90;;;;;;4978880;28;20106;-70
2023/03/08 03:33:51;;;;;;;33.53;23.75;;;6.60;99.90;;;;;;4978360;28;20031;-70
2023/03/08 03:36:19;;;;;;;36.22;23.98;;;6.60;99.90;;;;;;4978709;28;20078;-70
2023/03/08 03:38:45;;;;;;;32.40;22.83;;;6.60;99.90;;;;;;4978100;28;20038;-70
2023/03/08 03:41:14;;;;;;;33.95;24.75;;;6.60;99.90;;;;;;4978683;28;20027;-70
2023/03/08 03:43:40;;;;;;;33.15;22.45;;;6.60;99.90;;;;;;4978184;28;20069;-70
2023/03/08 03:46:10;;;;;;;32.28;22.98;;;6.60;99.90;;;;;;4978341;28;20033;-70
2023/03/08 03:48:36;;;;;;;34.08;25.13;;;6.60;99.90;;;;;;4956645;28;20439;-70
2023/03/08 03:51:05;;;;;;;37.70;24.90;;;6.60;99.90;;;;;;4978008;28;20027;-70
2023/03/08 03:53:32;;;;;;;35.50;23.13;;;6.50;99.90;;;;;;4960823;28;20026;-69
2023/03/08 03:56:05;;;;;;;36.47;23.83;;;6.50;99.90;;;;;;4978228;28;20447;-69
2023/03/08 03:58:31;;;;;;;36.47;24.38;;;6.50;99.90;;;;;;4978271;28;20019;-69
2023/03/08 04:00:57;;;;;;;33.03;23.65;;;6.50;99.90;;;;;;4977980;28;20078;-69
2023/03/08 04:03:23;;;;;;;37.33;25.58;;;6.50;99.90;;;;;;4978181;28;20098;-69
2023/03/08 04:05:49;;;;;;;32.38;23.65;;;6.50;99.90;;;;;;4977198;28;20093;-69
2023/03/08 04:08:15;;;;;;;38.25;24.85;;;6.60;99.90;;;;;;4977921;28;20094;-69
2023/03/08 04:10:41;;;;;;;34.78;23.70;;;6.60;99.90;;;;;;4960476;28;20521;-69
2023/03/08 04:13:07;;;;;;;33.42;23.67;;;6.50;99.90;;;;;;4978215;28;20023;-69
2023/03/08 04:15:32;;;;;;;35.30;24.15;;;6.50;99.90;;;;;;4977948;28;20513;-69
2023/03/08 04:17:58;;;;;;;35.53;24.52;;;6.50;99.90;;;;;;4978000;28;20022;-69
2023/03/08 04:20:24;;;;;;;34.25;24.17;;;6.50;99.90;;;;;;4960472;28;20089;-69
2023/03/08 04:22:50;;;;;;;32.38;23.75;;;6.40;99.90;;;;;;4977877;28;20023;-69
2023/03/08 04:25:15;;;;;;;35.55;23.55;;;6.40;99.90;;;;;;4960752;28;20039;-69
2023/03/08 04:27:41;;;;;;;35.40;22.92;;;6.40;99.90;;;;;;4980642;28;20034;-69
2023/03/08 04:30:07;;;;;;;31.70;23.38;;;6.40;99.90;;;;;;4981957;28;20057;-69
2023/03/08 04:32:33;;;;;;;32.85;24.33;;;6.40;99.90;;;;;;4964438;28;20039;-69
2023/03/08 04:34:59;;;;;;;29.67;22.55;;;6.40;99.90;;;;;;4964495;28;20126;-69
2023/03/08 04:37:25;;;;;;;30.95;21.00;;;6.40;99.90;;;;;;4964220;28;20074;-69
2023/03/08 04:39:50;;;;;;;28.88;21.42;;;6.40;99.90;;;;;;4964318;28;20031;-70
2023/03/08 04:42:16;;;;;;;30.35;23.00;;;6.40;99.90;;;;;;4964363;28;20018;-69
2023/03/08 04:44:42;;;;;;;30.00;21.65;;;6.50;99.90;;;;;;4981465;28;20435;-69
2023/03/08 04:47:08;;;;;;;36.08;22.45;;;6.60;99.90;;;;;;4981664;28;20027;-69
2023/03/08 04:49:33;;;;;;;33.17;21.75;;;6.60;99.90;;;;;;4981452;28;20050;-69
2023/03/08 04:51:59;;;;;;;30.50;20.83;;;6.70;99.90;;;;;;4981546;28;20034;-69
2023/03/08 04:54:26;;;;;;;28.35;21.45;;;6.70;99.90;;;;;;4981438;28;20114;-69
2023/03/08 04:56:51;;;;;;;29.90;21.30;;;6.80;99.90;;;;;;4981525;28;20110;-69
2023/03/08 04:59:17;;;;;;;29.58;21.20;;;6.80;99.90;;;;;;4964066;28;20062;-69
2023/03/08 05:01:43;;;;;;;29.27;20.17;;;6.90;99.90;;;;;;4981408;28;20030;-69
2023/03/08 05:04:11;;;;;;;26.38;19.65;;;6.80;99.90;;;;;;4981136;28;20109;-69
2023/03/08 05:06:37;;;;;;;24.60;20.10;;;6.90;99.90;;;;;;4981157;28;20031;-69
2023/03/08 05:09:03;;;;;;;25.27;18.63;;;6.90;99.90;;;;;;4981374;28;20030;-69
2023/03/08 05:11:29;;;;;;;27.98;20.33;;;6.90;99.90;;;;;;4981219;28;20142;-69
2023/03/08 05:13:57;;;;;;;27.17;18.88;;;6.90;99.90;;;;;;4963541;28;20061;-69
2023/03/08 05:16:24;;;;;;;25.90;17.85;;;6.90;99.90;;;;;;4980991;28;20387;-69
2023/03/08 05:18:49;;;;;;;28.60;19.40;;;6.90;99.90;;;;;;4963405;28;20014;-69
2023/03/08 05:21:19;;;;;;;26.08;19.55;;;6.90;99.90;;;;;;4980960;28;20015;-70
2023/03/08 05:23:45;;;;;;;29.15;19.77;;;7.00;99.90;;;;;;4980885;28;20033;-70
2023/03/08 05:26:14;;;;;;;32.25;21.02;;;6.90;99.90;;;;;;4980804;28;20031;-71
2023/03/08 05:28:43;;;;;;;24.85;18.95;;;7.00;99.90;;;;;;4980771;28;20023;-70
2023/03/08 05:31:20;;;;;;;25.88;16.23;;;7.00;99.90;;;;;;4980780;28;20438;-70
2023/03/08 05:33:49;;;;;;;20.20;15.18;;;7.00;99.90;;;;;;4980323;28;20039;-71
2023/03/08 05:36:16;;;;;;;23.30;16.88;;;7.00;99.90;;;;;;4963291;28;20027;-70
2023/03/08 05:38:43;;;;;;;22.90;16.98;;;7.00;99.90;;;;;;4962034;28;20055;-71
2023/03/08 05:41:12;;;;;;;20.55;15.27;;;7.00;99.90;;;;;;4980693;28;20027;-70
2023/03/08 05:43:38;;;;;;;19.73;15.50;;;7.00;99.90;;;;;;4975976;28;20027;-70
2023/03/08 05:46:06;;;;;;;18.55;15.55;;;7.10;99.90;;;;;;4980458;28;20026;-70
2023/03/08 05:48:33;;;;;;;19.60;15.77;;;7.10;99.90;;;;;;4968624;28;20040;-70
2023/03/08 05:51:08;;;;;;;26.25;16.88;;;7.10;99.90;;;;;;4980219;28;20034;-70
2023/03/08 05:53:34;;;;;;;20.75;15.27;;;7.10;99.90;;;;;;4963015;28;20063;-70
2023/03/08 05:56:12;;;;;;;21.00;15.25;;;7.00;99.90;;;;;;4980486;28;20026;-70
2023/03/08 05:58:37;;;;;;;20.88;15.27;;;7.00;99.90;;;;;;4980404;28;20124;-70
2023/03/08 06:01:21;;;;;;;21.20;14.48;;;7.00;99.90;;;;;;4962926;28;20510;-70
2023/03/08 06:03:49;;;;;;;19.30;14.77;;;7.00;99.90;;;;;;4953082;28;20031;-70
2023/03/08 06:06:15;;;;;;;21.88;15.38;;;7.00;99.90;;;;;;4974789;28;20042;-70
2023/03/08 06:08:41;;;;;;;19.48;14.07;;;6.90;99.90;;;;;;4980356;28;20035;-70
2023/03/08 06:11:07;;;;;;;19.50;14.60;;;6.90;99.90;;;;;;4974848;28;20027;-70
2023/03/08 06:13:33;;;;;;;18.05;14.60;;;6.90;99.90;;;;;;4980221;28;20030;-70
2023/03/08 06:16:00;;;;;;;17.38;13.65;;;6.80;99.90;;;;;;4974851;28;20015;-70
2023/03/08 06:18:26;;;;;;;18.80;14.90;;;6.80;99.90;;;;;;4980283;28;20026;-70
2023/03/08 06:21:04;;;;;;;18.75;13.40;;;6.70;99.90;;;;;;4974727;28;20110;-70
2023/03/08 06:23:31;;;;;;;20.83;14.02;;;6.70;99.90;;;;;;4962553;28;20035;-70
2023/03/08 06:25:58;;;;;;;22.58;14.07;;;6.70;99.90;;;;;;4979758;28;20030;-71
2023/03/08 06:28:24;;;;;;;19.38;13.93;;;6.70;99.90;;;;;;4962275;28;20060;-70
2023/03/08 06:30:50;;;;;;;21.17;14.70;;;6.70;99.90;;;;;;4962393;28;20043;-70
2023/03/08 06:33:22;;;;;;;22.13;15.68;;;6.70;99.90;;;;;;4962266;28;20399;-70
2023/03/08 06:36:04;;;;;;;26.98;17.35;;;6.80;99.90;;;;;;4979405;28;20081;-69
2023/03/08 06:38:32;;;;;;;21.10;15.43;;;6.80;99.90;;;;;;4979329;28;20043;-70
2023/03/08 06:40:58;;;;;;;20.60;15.48;;;6.90;99.90;;;;;;4979436;28;20109;-70
2023/03/08 06:43:24;;;;;;;21.35;15.68;;;6.90;99.90;;;;;;4961983;28;20058;-70
2023/03/08 06:45:50;;;;;;;17.40;14.30;;;7.00;99.90;;;;;;4962001;28;20080;-70
2023/03/08 06:48:16;;;;;;;17.00;13.63;;;7.10;99.90;;;;;;4979304;28;20094;-70
2023/03/08 06:50:41;;;;;;;16.83;12.45;;;7.10;99.90;;;;;;4978941;28;20042;-70
2023/03/08 06:53:07;;;;;;;15.82;12.95;;;7.20;99.90;;;;;;4979143;28;20027;-70
2023/03/08 06:55:37;;;;;;;13.80;10.88;;;7.20;99.90;;;;;;4979465;28;20037;-70
2023/03/08 06:58:03;;;;;;;14.75;11.20;;;7.20;99.90;;;;;;4979069;28;20014;-70
2023/03/08 07:00:29;;;;;;;15.63;11.35;;;7.30;99.90;;;;;;4979263;28;20027;-70
2023/03/08 07:02:54;;;;;;;11.90;9.73;;;7.30;99.90;;;;;;4979046;28;20509;-70
2023/03/08 07:05:21;;;;;;;12.20;9.88;;;7.30;99.90;;;;;;4961704;28;20422;-70
2023/03/08 07:07:46;;;;;;;11.63;9.25;;;7.30;99.90;;;;;;4978638;28;20023;-70
2023/03/08 07:10:14;;;;;;;10.23;9.20;;;7.40;99.90;;;;;;4979106;28;20376;-70
2023/03/08 07:12:42;;;;;;;10.52;9.35;;;7.50;99.90;;;;;;4978828;28;20027;-69
2023/03/08 07:15:15;;;;;;;11.27;9.20;;;7.50;99.90;;;;;;4978895;28;20031;-69
2023/03/08 07:17:42;;;;;;;9.77;8.38;;;7.60;99.90;;;;;;4978783;28;20022;-69
2023/03/08 07:20:10;;;;;;;12.73;9.93;;;7.70;99.90;;;;;;4961199;28;20376;-70
2023/03/08 07:22:35;;;;;;;15.13;9.15;;;7.80;99.90;;;;;;4978735;28;20015;-69
2023/03/08 07:25:01;;;;;;;11.30;8.90;;;7.90;99.90;;;;;;4978713;28;20037;-69
2023/03/08 07:27:27;;;;;;;11.90;9.40;;;8.00;99.90;;;;;;4978618;28;20022;-70
2023/03/08 07:29:53;;;;;;;8.05;7.25;;;8.20;99.90;;;;;;4961411;28;20030;-70
2023/03/08 07:32:18;;;;;;;10.00;8.80;;;8.30;99.90;;;;;;4978726;28;20023;-70
2023/03/08 07:34:44;;;;;;;9.07;8.18;;;8.50;99.90;;;;;;4978367;28;20031;-70
2023/03/08 07:37:15;;;;;;;11.00;7.93;;;8.70;99.90;;;;;;4974172;28;20395;-70
2023/03/08 07:39:41;;;;;;;10.00;8.45;;;8.70;99.90;;;;;;4978392;28;20060;-70
2023/03/08 07:42:08;;;;;;;9.52;8.35;;;8.90;99.90;;;;;;4961168;28;20102;-71
2023/03/08 07:44:36;;;;;;;8.80;7.90;;;8.90;99.90;;;;;;4978368;28;20046;-70
2023/03/08 07:47:02;;;;;;;8.32;7.43;;;9.00;99.90;;;;;;4960030;28;20031;-70
2023/03/08 07:49:28;;;;;;;8.23;7.30;;;9.10;99.90;;;;;;4960749;28;20078;-71
2023/03/08 07:51:53;;;;;;;11.85;8.95;;;9.20;99.90;;;;;;4978107;28;20034;-70
2023/03/08 07:54:19;;;;;;;13.48;10.23;;;9.30;99.90;;;;;;4978223;28;20035;-70
2023/03/08 07:56:45;;;;;;;55.83;42.90;;;9.30;99.90;;;;;;4978348;28;20050;-70
2023/03/08 07:59:10;;;;;;;27.52;22.25;;;9.40;99.90;;;;;;4978302;28;20078;-71
2023/03/08 08:01:36;;;;;;;32.30;23.98;;;9.40;99.90;;;;;;4977728;28;20094;-70
2023/03/08 08:04:02;;;;;;;28.10;21.90;;;9.30;99.90;;;;;;4978033;28;20066;-71
2023/03/08 08:06:28;;;;;;;15.20;9.95;;;9.30;99.90;;;;;;4978329;28;20031;-70
2023/03/08 08:08:54;;;;;;;14.68;11.65;;;9.30;99.90;;;;;;4960781;28;20027;-71
2023/03/08 08:11:21;;;;;;;31.08;23.35;;;9.20;99.90;;;;;;4960906;28;20107;-71
2023/03/08 08:13:47;;;;;;;29.60;22.13;;;9.20;99.90;;;;;;4977887;28;20039;-71
2023/03/08 08:16:14;;;;;;;32.55;25.02;;;9.20;99.90;;;;;;4960894;28;20045;-70
2023/03/08 08:18:41;;;;;;;23.92;16.60;;;9.20;99.90;;;;;;4978023;28;20082;-70
2023/03/08 08:21:10;;;;;;;16.02;14.43;;;9.30;99.90;;;;;;4960627;28;20027;-71
2023/03/08 08:23:36;;;;;;;9.60;8.55;;;9.40;99.90;;;;;;4978288;28;20054;-71
2023/03/08 08:26:08;;;;;;;9.45;7.80;;;9.70;99.90;;;;;;4960727;28;20026;-71
2023/03/08 08:28:35;;;;;;;10.75;9.63;;;10.00;99.90;;;;;;4976590;28;20058;-70
2023/03/08 08:31:13;;;;;;;8.02;7.22;;;10.20;99.90;;;;;;4960360;28;20018;-71
2023/03/08 08:33:39;;;;;;;7.15;6.10;;;10.40;99.90;;;;;;4960565;28;20035;-69
2023/03/08 08:36:07;;;;;;;10.55;7.05;;;10.60;99.90;;;;;;4977657;28;20015;-70
2023/03/08 08:38:33;;;;;;;9.02;7.63;;;10.70;99.90;;;;;;4977735;28;20057;-70
2023/03/08 08:41:00;;;;;;;8.82;8.00;;;10.90;99.90;;;;;;4973496;28;20042;-70
2023/03/08 08:43:27;;;;;;;7.55;6.82;;;11.10;99.90;;;;;;4971215;28;20023;-70
2023/03/08 08:45:55;;;;;;;5.32;4.55;;;11.20;99.90;;;;;;4987674;28;20030;-70
2023/03/08 08:48:21;;;;;;;4.20;3.80;;;11.40;99.90;;;;;;4993302;28;20038;-70
2023/03/08 08:50:47;;;;;;;4.40;4.00;;;11.50;99.90;;;;;;4985852;28;20026;-69
2023/03/08 08:53:13;;;;;;;5.40;3.88;;;11.50;99.90;;;;;;4992913;28;20069;-70
2023/03/08 08:55:39;;;;;;;4.57;4.18;;;11.60;99.90;;;;;;4990726;28;20026;-70
2023/03/08 08:58:05;;;;;;;4.00;3.60;;;11.70;99.90;;;;;;4975568;28;20034;-70
2023/03/08 09:00:32;;;;;;;4.88;4.05;;;11.90;99.90;;;;;;4990143;28;20050;-69
2023/03/08 09:02:59;;;;;;;10.30;7.80;;;12.00;99.90;;;;;;4992697;28;20509;-70
2023/03/08 09:05:24;;;;;;;9.50;7.60;;;12.00;99.90;;;;;;4987892;28;20033;-71
2023/03/08 09:07:57;;;;;;;15.75;13.13;;;11.90;99.90;;;;;;4993790;28;20031;-70
2023/03/08 09:10:24;;;;;;;8.40;6.43;;;11.90;99.90;;;;;;4992703;28;20422;-70
2023/03/08 09:12:49;;;;;;;44.55;36.15;;;11.90;99.90;;;;;;4989674;28;20037;-69
2023/03/08 09:15:15;;;;;;;6.90;6.10;;;11.90;99.90;;;;;;4998736;28;20019;-70
2023/03/08 09:17:41;;;;;;;8.63;6.18;;;11.90;99.90;;;;;;4994336;28;20169;-70
2023/03/08 09:20:08;;;;;;;4.97;3.97;;;12.00;99.90;;;;;;4974973;28;20018;-70
2023/03/08 09:22:35;;;;;;;4.80;4.25;;;12.10;99.90;;;;;;4960246;28;20027;-71
2023/03/08 09:25:01;;;;;;;8.68;7.78;;;12.20;99.90;;;;;;4979438;28;20022;-69
2023/03/08 09:27:27;;;;;;;4.55;4.00;;;12.40;99.90;;;;;;4996358;28;20113;-70
2023/03/08 09:29:52;;;;;;;4.75;4.07;;;12.50;99.90;;;;;;4997989;28;20105;-71
2023/03/08 09:32:18;;;;;;;7.82;5.57;;;12.70;99.90;;;;;;4989829;28;20031;-70
2023/03/08 09:34:44;;;;;;;15.60;12.63;;;12.80;99.90;;;;;;4995708;28;20030;-70
2023/03/08 09:37:12;;;;;;;18.00;15.23;;;12.80;99.90;;;;;;4995659;28;20034;-70
2023/03/08 09:39:39;;;;;;;6.18;4.03;;;13.00;99.90;;;;;;4995185;28;20026;-70
2023/03/08 09:42:17;;;;;;;4.95;4.15;;;13.00;99.90;;;;;;4992940;28;20034;-70
2023/03/08 09:45:05;;;;;;;6.38;5.28;;;13.10;99.90;;;;;;4977688;28;20034;-70
2023/03/08 09:48:03;;;;;;;4.15;3.70;;;13.30;99.90;;;;;;4995176;28;20065;-71
2023/03/08 09:50:34;;;;;;;7.45;4.00;;;13.60;99.90;;;;;;4986233;28;20033;-70
2023/03/08 09:53:26;;;;;;;27.42;19.13;;;13.90;99.90;;;;;;4993496;28;20509;-71
2023/03/08 09:55:54;;;;;;;49.50;32.67;;;14.00;99.90;;;;;;4979920;28;20163;-71
2023/03/08 09:58:29;;;;;;;4.43;3.78;;;14.20;99.90;;;;;;4985571;28;20033;-70
2023/03/08 10:01:36;;;;;;;5.32;4.63;;;14.40;99.90;;;;;;4967161;28;20030;-70
2023/03/08 10:04:11;;;;;;;14.63;10.48;;;14.50;99.90;;;;;;4972045;28;20026;-70
2023/03/08 10:06:47;;;;;;;9.65;6.75;;;14.60;99.90;;;;;;4992445;28;20038;-70
2023/03/08 10:09:18;;;;;;;27.30;18.85;;;14.70;99.90;;;;;;4994626;28;20076;-70
2023/03/08 10:12:01;;;;;;;14.07;9.90;;;14.80;99.90;;;;;;4981952;28;20089;-72
2023/03/08 10:14:41;;;;;;;6.78;5.50;;;14.60;99.90;;;;;;4983699;28;20441;-70
2023/03/08 10:17:25;;;;;;;8.95;5.85;;;14.50;99.90;;;;;;4993779;28;20069;-71
2023/03/08 10:20:15;;;;;;;9.27;6.07;;;14.40;99.90;;;;;;4986890;28;20402;-71
2023/03/08 10:22:41;;;;;;;9.23;5.68;;;14.40;99.90;;;;;;4989215;28;20113;-71
2023/03/08 10:25:30;;;;;;;9.00;5.85;;;14.30;99.90;;;;;;4977565;28;20022;-71
2023/03/08 10:27:57;;;;;;;7.55;5.05;;;14.20;99.90;;;;;;4992508;28;20015;-70
2023/03/08 10:30:32;;;;;;;7.72;5.10;;;14.20;99.90;;;;;;4997882;28;20082;-70
2023/03/08 10:32:59;;;;;;;6.05;5.00;;;14.20;99.90;;;;;;4973659;28;20069;-70
2023/03/08 10:35:35;;;;;;;9.35;7.43;;;14.20;99.90;;;;;;4995009;28;20027;-69
2023/03/08 10:38:01;;;;;;;12.45;11.02;;;14.20;99.90;;;;;;4994058;28;20046;-70
2023/03/08 10:40:27;;;;;;;12.35;6.97;;;14.10;99.90;;;;;;4993042;28;20493;-70
2023/03/08 10:42:59;;;;;;;22.20;16.80;;;14.20;99.90;;;;;;4994126;28;20058;-70
2023/03/08 10:45:27;;;;;;;26.40;19.77;;;14.20;99.90;;;;;;4990120;28;20026;-70
2023/03/08 10:47:55;;;;;;;24.58;17.17;;;14.20;99.90;;;;;;4978183;28;20442;-70
2023/03/08 10:50:23;;;;;;;7.53;5.60;;;14.20;99.90;;;;;;4992817;28;20015;-70
2023/03/08 10:52:50;;;;;;;12.55;7.05;;;14.40;99.90;;;;;;4989228;28;20044;-70
2023/03/08 10:55:17;;;;;;;11.10;7.97;;;14.40;99.90;;;;;;4975627;28;20077;-70
2023/03/08 10:57:48;;;;;;;9.65;6.72;;;14.40;99.90;;;;;;4973961;28;20034;-70
2023/03/08 11:00:36;;;;;;;14.85;6.75;;;14.40;99.90;;;;;;4973210;28;20023;-70
2023/03/08 11:03:18;;;;;;;63.53;42.92;;;14.50;99.90;;;;;;4973714;28;20030;-70
2023/03/08 11:06:23;;;;;;;26.25;18.88;;;14.50;99.90;;;;;;4973303;28;20034;-70
2023/03/08 11:08:58;;;;;;;21.42;15.30;;;14.50;99.90;;;;;;4885003;29;20042;-70
2023/03/08 11:11:24;;;;;;;12.43;9.60;;;14.50;99.90;;;;;;4980145;28;20061;-71
2023/03/08 11:13:51;;;;;;;25.63;17.15;;;14.70;99.90;;;;;;4989901;28;20073;-70
2023/03/08 11:16:27;;;;;;;11.82;8.15;;;15.10;99.90;;;;;;4993378;28;20022;-70
2023/03/08 11:19:02;;;;;;;12.38;5.63;;;15.30;99.90;;;;;;4982531;28;20439;-70
2023/03/08 11:21:35;;;;;;;7.05;5.10;;;15.40;99.90;;;;;;4961187;28;20030;-70
2023/03/08 11:24:39;;;;;;;7.00;6.00;;;15.30;99.90;;;;;;4978673;28;20038;-71
2023/03/08 11:27:13;;;;;;;7.53;5.30;;;15.20;99.90;;;;;;4978759;28;20073;-70
2023/03/08 11:29:56;;;;;;;8.75;6.20;;;15.30;99.90;;;;;;4961276;28;20031;-70
2023/03/08 11:32:49;;;;;;;6.75;5.28;;;15.40;99.90;;;;;;4956985;28;20034;-70
2023/03/08 11:35:30;;;;;;;7.80;5.70;;;15.40;99.90;;;;;;4960917;28;20029;-70
2023/03/08 11:38:14;;;;;;;5.95;5.05;;;15.50;99.90;;;;;;4977879;28;20047;-70
2023/03/08 11:40:39;;;;;;;7.45;5.38;;;15.60;99.90;;;;;;4975980;28;20399;-70
2023/03/08 11:43:16;;;;;;;7.72;4.88;;;15.90;99.90;;;;;;4978397;28;20031;-70
2023/03/08 11:45:56;;;;;;;7.32;5.97;;;16.20;99.90;;;;;;4978201;28;20525;-70
2023/03/08 11:48:21;;;;;;;10.38;4.95;;;16.50;99.90;;;;;;4961094;28;20074;-70
2023/03/08 11:50:59;;;;;;;7.70;4.68;;;16.60;99.90;;;;;;4960277;28;20082;-71
2023/03/08 11:53:42;;;;;;;7.25;5.75;;;16.70;99.90;;;;;;4976296;28;20400;-70
2023/03/08 11:56:11;;;;;;;6.43;5.10;;;16.70;99.90;;;;;;4972836;28;20026;-69
2023/03/08 11:58:45;;;;;;;9.18;5.30;;;16.60;99.90;;;;;;4977877;28;20023;-69
2023/03/08 12:01:24;;;;;;;7.32;4.80;;;16.70;99.90;;;;;;4960948;28;20036;-69
2023/03/08 12:03:54;;;;;;;4.93;4.15;;;16.90;99.90;;;;;;4977974;28;20038;-70
2023/03/08 12:06:36;;;;;;;6.68;4.00;;;17.20;99.90;;;;;;4977703;28;20395;-70
2023/03/08 12:09:30;;;;;;;7.53;4.18;;;17.40;99.90;;;;;;4978136;28;20081;-70
2023/03/08 12:12:17;;;;;;;5.68;4.63;;;17.50;99.90;;;;;;4965239;28;20026;-71
2023/03/08 12:14:54;;;;;;;5.25;4.32;;;17.60;99.90;;;;;;4977947;28;20073;-71
2023/03/08 12:17:28;;;;;;;5.93;4.90;;;17.80;99.90;;;;;;4978207;28;20026;-71
2023/03/08 12:19:54;;;;;;;6.18;4.47;;;18.00;99.90;;;;;;4977344;28;20049;-71
2023/03/08 12:22:32;;;;;;;5.55;4.40;;;17.90;99.90;;;;;;4978250;28;20446;-72
2023/03/08 12:25:15;;;;;;;6.80;4.53;;;17.90;99.90;;;;;;4965718;28;20084;-70
2023/03/08 12:27:50;;;;;;;5.80;4.10;;;17.70;99.90;;;;;;4977751;28;20031;-71
2023/03/08 12:30:32;;;;;;;4.55;3.83;;;17.60;99.90;;;;;;4977887;28;20031;-71
2023/03/08 12:33:00;;;;;;;4.78;4.03;;;17.70;99.90;;;;;;4977766;28;20122;-71
2023/03/08 12:35:35;;;;;;;9.23;4.60;;;17.80;99.90;;;;;;4977460;28;20023;-71
2023/03/08 12:38:06;;;;;;;5.68;3.53;;;18.00;99.90;;;;;;4977753;28;20079;-70
2023/03/08 12:40:39;;;;;;;6.65;4.35;;;18.30;99.90;;;;;;4977832;28;20510;-71
2023/03/08 12:43:13;;;;;;;9.00;4.60;;;18.50;99.90;;;;;;4977647;28;20486;-71
2023/03/08 12:45:42;;;;;;;7.90;5.00;;;18.80;99.90;;;;;;4977587;28;20030;-71
2023/03/08 12:48:17;;;;;;;6.22;4.88;;;18.80;99.90;;;;;;4979375;28;20109;-71
2023/03/08 12:51:01;;;;;;;7.55;4.90;;;18.80;99.90;;;;;;4981456;28;20390;-69
2023/03/08 12:53:47;;;;;;;6.05;3.70;;;18.70;99.90;;;;;;4978440;28;20027;-71